sensor_id;sensor_type;location;lat;lon;timestamp;temperature;humidity
6377;DHT22;3221;48.858;10.128;2023-05-07T00:02:07;14.20;99.90
6377;DHT22;3221;48.858;10.128;2023-05-07T00:04:34;14.20;99.90
6377;DHT22;3221;48.858;10.128;2023-05-07T00:07:04;14.30;99.90
6377;DHT22;3221;48.858;10.128;2023-05-07T00:09:32;14.20;99.90
6377;DHT22;3221;48.858;10.128;2023-05-07T00:11:59;14.30;99.90
6377;DHT22;3221;48.858;10.128;2023-05-07T00:14:26;14.10;99.90
6377;DHT22;3221;48.858;10.128;2023-05-07T00:16:53;14.20;99.90
6377;DHT22;3221;48.858;10.128;2023-05-07T00:19:20;14.20;99.90
6377;DHT22;3221;48.858;10.128;2023-05-07T00:21:47;14.30;99.90
6377;DHT22;3221;48.858;10.128;2023-05-07T00:24:14;14.30;99.90
6377;DHT22;3221;48.858;10.128;2023-05-07T00:26:41;14.40;99.90
6377;DHT22;3221;48.858;10.128;2023-05-07T00:29:08;14.20;99.90
6377;DHT22;3221;48.858;10.128;2023-05-07T00:31:34;14.30;99.90
6377;DHT22;3221;48.858;10.128;2023-05-07T00:34:02;14.30;99.90
6377;DHT22;3221;48.858;10.128;2023-05-07T00:36:29;14.20;99.90
6377;DHT22;3221;48.858;10.128;2023-05-07T00:38:58;14.20;99.90
6377;DHT22;3221;48.858;10.128;2023-05-07T00:41:26;14.10;99.90
6377;DHT22;3221;48.858;10.128;2023-05-07T00:43:53;14.20;99.90
6377;DHT22;3221;48.858;10.128;2023-05-07T00:46:20;14.20;99.90
6377;DHT22;3221;48.858;10.128;2023-05-07T00:48:48;14.10;99.90
6377;DHT22;3221;48.858;10.128;2023-05-07T00:51:17;14.10;99.90
6377;DHT22;3221;48.858;10.128;2023-05-07T00:53:44;14.10;99.90
6377;DHT22;3221;48.858;10.128;2023-05-07T00:56:12;14.00;99.90
6377;DHT22;3221;48.858;10.128;2023-05-07T00:58:39;14.00;99.90
6377;DHT22;3221;48.858;10.128;2023-05-07T01:01:06;14.10;99.90
6377;DHT22;3221;48.858;10.128;2023-05-07T01:03:34;14.20;99.90
6377;DHT22;3221;48.858;10.128;2023-05-07T01:06:02;14.30;99.90
6377;DHT22;3221;48.858;10.128;2023-05-07T01:08:30;14.30;99.90
6377;DHT22;3221;48.858;10.128;2023-05-07T01:10:57;14.30;99.90
6377;DHT22;3221;48.858;10.128;2023-05-07T01:13:25;14.30;99.90
6377;DHT22;3221;48.858;10.128;2023-05-07T01:15:52;14.20;99.90
6377;DHT22;3221;48.858;10.128;2023-05-07T01:18:19;14.20;99.90
6377;DHT22;3221;48.858;10.128;2023-05-07T01:20:46;14.20;99.90
6377;DHT22;3221;48.858;10.128;2023-05-07T01:23:13;14.10;99.90
6377;DHT22;3221;48.858;10.128;2023-05-07T01:25:41;14.10;99.90
6377;DHT22;3221;48.858;10.128;2023-05-07T01:28:10;14.20;99.90
6377;DHT22;3221;48.858;10.128;2023-05-07T01:30:42;14.20;99.90
6377;DHT22;3221;48.858;10.128;2023-05-07T01:33:14;14.20;99.90
6377;DHT22;3221;48.858;10.128;2023-05-07T01:35:45;14.20;99.90
6377;DHT22;3221;48.858;10.128;2023-05-07T01:38:13;14.20;99.90
6377;DHT22;3221;48.858;10.128;2023-05-07T01:40:40;14.10;99.90
6377;DHT22;3221;48.858;10.128;2023-05-07T01:43:07;13.90;99.90
6377;DHT22;3221;48.858;10.128;2023-05-07T01:45:37;13.90;99.90
6377;DHT22;3221;48.858;10.128;2023-05-07T01:48:06;13.80;99.90
6377;DHT22;3221;48.858;10.128;2023-05-07T01:50:34;13.90;99.90
6377;DHT22;3221;48.858;10.128;2023-05-07T01:53:02;14.00;99.90
6377;DHT22;3221;48.858;10.128;2023-05-07T01:55:29;14.00;99.90
6377;DHT22;3221;48.858;10.128;2023-05-07T01:57:56;14.00;99.90
6377;DHT22;3221;48.858;10.128;2023-05-07T02:00:23;14.00;99.90
6377;DHT22;3221;48.858;10.128;2023-05-07T02:02:50;14.00;99.90
6377;DHT22;3221;48.858;10.128;2023-05-07T02:05:31;14.10;99.90
6377;DHT22;3221;48.858;10.128;2023-05-07T02:08:03;14.00;99.90
6377;DHT22;3221;48.858;10.128;2023-05-07T02:10:30;13.90;99.90
6377;DHT22;3221;48.858;10.128;2023-05-07T02:12:58;13.90;99.90
6377;DHT22;3221;48.858;10.128;2023-05-07T02:15:28;14.00;99.90
6377;DHT22;3221;48.858;10.128;2023-05-07T02:18:03;13.90;99.90
6377;DHT22;3221;48.858;10.128;2023-05-07T02:20:31;13.80;99.90
6377;DHT22;3221;48.858;10.128;2023-05-07T02:22:58;13.80;99.90
6377;DHT22;3221;48.858;10.128;2023-05-07T02:25:27;13.90;99.90
6377;DHT22;3221;48.858;10.128;2023-05-07T02:27:54;13.80;99.90
6377;DHT22;3221;48.858;10.128;2023-05-07T02:30:26;13.80;99.90
6377;DHT22;3221;48.858;10.128;2023-05-07T02:32:56;13.80;99.90
6377;DHT22;3221;48.858;10.128;2023-05-07T02:35:24;13.90;99.90
6377;DHT22;3221;48.858;10.128;2023-05-07T02:37:52;13.90;99.90
6377;DHT22;3221;48.858;10.128;2023-05-07T02:40:19;13.80;99.90
6377;DHT22;3221;48.858;10.128;2023-05-07T02:42:46;13.80;99.90
6377;DHT22;3221;48.858;10.128;2023-05-07T02:45:13;13.90;99.90
6377;DHT22;3221;48.858;10.128;2023-05-07T02:47:42;13.80;99.90
6377;DHT22;3221;48.858;10.128;2023-05-07T02:50:09;13.90;99.90
6377;DHT22;3221;48.858;10.128;2023-05-07T02:52:36;13.80;99.90
6377;DHT22;3221;48.858;10.128;2023-05-07T02:55:04;13.70;99.90
6377;DHT22;3221;48.858;10.128;2023-05-07T02:57:31;13.70;99.90
6377;DHT22;3221;48.858;10.128;2023-05-07T02:59:58;13.80;99.90
6377;DHT22;3221;48.858;10.128;2023-05-07T03:02:28;13.80;99.90
6377;DHT22;3221;48.858;10.128;2023-05-07T03:04:56;13.70;99.90
6377;DHT22;3221;48.858;10.128;2023-05-07T03:07:22;13.70;99.90
6377;DHT22;3221;48.858;10.128;2023-05-07T03:09:49;13.70;99.90
6377;DHT22;3221;48.858;10.128;2023-05-07T03:12:16;13.70;99.90
6377;DHT22;3221;48.858;10.128;2023-05-07T03:14:43;13.60;99.90
6377;DHT22;3221;48.858;10.128;2023-05-07T03:17:10;13.70;99.90
6377;DHT22;3221;48.858;10.128;2023-05-07T03:19:37;13.70;99.90
6377;DHT22;3221;48.858;10.128;2023-05-07T03:22:04;13.60;99.90
6377;DHT22;3221;48.858;10.128;2023-05-07T03:24:31;13.60;99.90
6377;DHT22;3221;48.858;10.128;2023-05-07T03:26:58;13.60;99.90
6377;DHT22;3221;48.858;10.128;2023-05-07T03:29:25;13.60;99.90
6377;DHT22;3221;48.858;10.128;2023-05-07T03:31:52;13.50;99.90
6377;DHT22;3221;48.858;10.128;2023-05-07T03:34:19;13.60;99.90
6377;DHT22;3221;48.858;10.128;2023-05-07T03:36:49;13.60;99.90
6377;DHT22;3221;48.858;10.128;2023-05-07T03:39:17;13.50;99.90
6377;DHT22;3221;48.858;10.128;2023-05-07T03:41:44;13.50;99.90
6377;DHT22;3221;48.858;10.128;2023-05-07T03:44:10;13.60;99.90
6377;DHT22;3221;48.858;10.128;2023-05-07T03:46:38;13.60;99.90
6377;DHT22;3221;48.858;10.128;2023-05-07T03:49:06;13.60;99.90
6377;DHT22;3221;48.858;10.128;2023-05-07T03:51:33;13.50;99.90
6377;DHT22;3221;48.858;10.128;2023-05-07T03:54:00;13.50;99.90
6377;DHT22;3221;48.858;10.128;2023-05-07T03:56:30;13.50;99.90
6377;DHT22;3221;48.858;10.128;2023-05-07T03:59:00;13.50;99.90
6377;DHT22;3221;48.858;10.128;2023-05-07T04:01:27;13.50;99.90
6377;DHT22;3221;48.858;10.128;2023-05-07T04:03:55;13.50;99.90
6377;DHT22;3221;48.858;10.128;2023-05-07T04:06:23;13.50;99.90
6377;DHT22;3221;48.858;10.128;2023-05-07T04:08:50;13.50;99.90
6377;DHT22;3221;48.858;10.128;2023-05-07T04:11:17;13.50;99.90
6377;DHT22;3221;48.858;10.128;2023-05-07T04:13:44;13.40;99.90
6377;DHT22;3221;48.858;10.128;2023-05-07T04:16:11;13.50;99.90
6377;DHT22;3221;48.858;10.128;2023-05-07T04:18:38;13.50;99.90
6377;DHT22;3221;48.858;10.128;2023-05-07T04:21:06;13.40;99.90
6377;DHT22;3221;48.858;10.128;2023-05-07T04:23:40;13.50;99.90
6377;DHT22;3221;48.858;10.128;2023-05-07T04:26:10;13.50;99.90
6377;DHT22;3221;48.858;10.128;2023-05-07T04:28:42;13.40;99.90
6377;DHT22;3221;48.858;10.128;2023-05-07T04:31:10;13.40;99.90
6377;DHT22;3221;48.858;10.128;2023-05-07T04:33:37;13.40;99.90
6377;DHT22;3221;48.858;10.128;2023-05-07T04:36:07;13.40;99.90
6377;DHT22;3221;48.858;10.128;2023-05-07T04:38:40;13.40;99.90
6377;DHT22;3221;48.858;10.128;2023-05-07T04:41:09;13.30;99.90
6377;DHT22;3221;48.858;10.128;2023-05-07T04:43:39;13.30;99.90
6377;DHT22;3221;48.858;10.128;2023-05-07T04:46:06;13.40;99.90
6377;DHT22;3221;48.858;10.128;2023-05-07T04:48:34;13.30;99.90
6377;DHT22;3221;48.858;10.128;2023-05-07T04:51:04;13.30;99.90
6377;DHT22;3221;48.858;10.128;2023-05-07T04:53:31;13.30;99.90
6377;DHT22;3221;48.858;10.128;2023-05-07T04:55:58;13.30;99.90
6377;DHT22;3221;48.858;10.128;2023-05-07T04:58:31;13.30;99.90
6377;DHT22;3221;48.858;10.128;2023-05-07T05:00:59;13.30;99.90
6377;DHT22;3221;48.858;10.128;2023-05-07T05:03:27;13.30;99.90
6377;DHT22;3221;48.858;10.128;2023-05-07T05:05:54;13.30;99.90
6377;DHT22;3221;48.858;10.128;2023-05-07T05:08:22;13.30;99.90
6377;DHT22;3221;48.858;10.128;2023-05-07T05:10:50;13.40;99.90
6377;DHT22;3221;48.858;10.128;2023-05-07T05:13:17;13.30;99.90
6377;DHT22;3221;48.858;10.128;2023-05-07T05:15:45;13.40;99.90
6377;DHT22;3221;48.858;10.128;2023-05-07T05:18:12;13.40;99.90
6377;DHT22;3221;48.858;10.128;2023-05-07T05:20:39;13.40;99.90
6377;DHT22;3221;48.858;10.128;2023-05-07T05:23:08;13.40;99.90
6377;DHT22;3221;48.858;10.128;2023-05-07T05:25:36;13.40;99.90
6377;DHT22;3221;48.858;10.128;2023-05-07T05:28:03;13.50;99.90
6377;DHT22;3221;48.858;10.128;2023-05-07T05:30:33;13.50;99.90
6377;DHT22;3221;48.858;10.128;2023-05-07T05:33:00;13.40;99.90
6377;DHT22;3221;48.858;10.128;2023-05-07T05:35:29;13.40;99.90
6377;DHT22;3221;48.858;10.128;2023-05-07T05:37:57;13.40;99.90
6377;DHT22;3221;48.858;10.128;2023-05-07T05:40:24;13.60;99.90
6377;DHT22;3221;48.858;10.128;2023-05-07T05:42:51;13.50;99.90
6377;DHT22;3221;48.858;10.128;2023-05-07T05:45:18;13.40;99.90
6377;DHT22;3221;48.858;10.128;2023-05-07T05:47:45;13.40;99.90
6377;DHT22;3221;48.858;10.128;2023-05-07T05:50:13;13.50;99.90
6377;DHT22;3221;48.858;10.128;2023-05-07T05:52:40;13.60;99.90
6377;DHT22;3221;48.858;10.128;2023-05-07T05:55:08;13.40;99.90
6377;DHT22;3221;48.858;10.128;2023-05-07T05:57:36;13.50;99.90
6377;DHT22;3221;48.858;10.128;2023-05-07T06:00:04;13.40;99.90
6377;DHT22;3221;48.858;10.128;2023-05-07T06:02:32;13.50;99.90
6377;DHT22;3221;48.858;10.128;2023-05-07T06:05:00;13.50;99.90
6377;DHT22;3221;48.858;10.128;2023-05-07T06:07:27;13.60;99.90
6377;DHT22;3221;48.858;10.128;2023-05-07T06:09:54;13.60;99.90
6377;DHT22;3221;48.858;10.128;2023-05-07T06:12:22;13.50;99.90
6377;DHT22;3221;48.858;10.128;2023-05-07T06:14:49;13.60;99.90
6377;DHT22;3221;48.858;10.128;2023-05-07T06:17:16;13.60;99.90
6377;DHT22;3221;48.858;10.128;2023-05-07T06:19:47;13.70;99.90
6377;DHT22;3221;48.858;10.128;2023-05-07T06:22:17;13.70;99.90
6377;DHT22;3221;48.858;10.128;2023-05-07T06:24:44;13.90;99.90
6377;DHT22;3221;48.858;10.128;2023-05-07T06:27:11;14.00;99.90
6377;DHT22;3221;48.858;10.128;2023-05-07T06:29:39;14.00;99.90
6377;DHT22;3221;48.858;10.128;2023-05-07T06:32:13;14.00;99.90
6377;DHT22;3221;48.858;10.128;2023-05-07T06:34:42;14.10;99.90
6377;DHT22;3221;48.858;10.128;2023-05-07T06:37:10;14.20;99.90
6377;DHT22;3221;48.858;10.128;2023-05-07T06:39:49;14.10;99.90
6377;DHT22;3221;48.858;10.128;2023-05-07T06:42:16;14.20;99.90
6377;DHT22;3221;48.858;10.128;2023-05-07T06:44:46;14.20;99.90
6377;DHT22;3221;48.858;10.128;2023-05-07T06:47:15;14.20;99.90
6377;DHT22;3221;48.858;10.128;2023-05-07T06:49:45;14.20;99.90
6377;DHT22;3221;48.858;10.128;2023-05-07T06:52:16;14.20;99.90
6377;DHT22;3221;48.858;10.128;2023-05-07T06:54:43;14.30;99.90
6377;DHT22;3221;48.858;10.128;2023-05-07T06:57:13;14.40;99.90
6377;DHT22;3221;48.858;10.128;2023-05-07T06:59:40;14.40;99.90
6377;DHT22;3221;48.858;10.128;2023-05-07T07:02:08;14.50;99.90
6377;DHT22;3221;48.858;10.128;2023-05-07T07:04:35;14.60;99.90
6377;DHT22;3221;48.858;10.128;2023-05-07T07:07:06;14.70;99.90
6377;DHT22;3221;48.858;10.128;2023-05-07T07:09:33;14.70;99.90
6377;DHT22;3221;48.858;10.128;2023-05-07T07:12:01;14.80;99.90
6377;DHT22;3221;48.858;10.128;2023-05-07T07:14:29;14.90;99.90
6377;DHT22;3221;48.858;10.128;2023-05-07T07:16:56;15.00;99.90
6377;DHT22;3221;48.858;10.128;2023-05-07T07:19:25;14.90;99.90
6377;DHT22;3221;48.858;10.128;2023-05-07T07:21:54;15.00;99.90
6377;DHT22;3221;48.858;10.128;2023-05-07T07:24:21;15.10;99.90
6377;DHT22;3221;48.858;10.128;2023-05-07T07:26:52;15.10;99.90
6377;DHT22;3221;48.858;10.128;2023-05-07T07:29:20;15.20;99.90
6377;DHT22;3221;48.858;10.128;2023-05-07T07:31:48;15.30;99.90
6377;DHT22;3221;48.858;10.128;2023-05-07T07:34:18;15.40;99.90
6377;DHT22;3221;48.858;10.128;2023-05-07T07:36:45;15.40;99.90
6377;DHT22;3221;48.858;10.128;2023-05-07T07:39:16;15.40;99.90
6377;DHT22;3221;48.858;10.128;2023-05-07T07:41:44;15.50;99.90
6377;DHT22;3221;48.858;10.128;2023-05-07T07:44:12;15.60;99.90
6377;DHT22;3221;48.858;10.128;2023-05-07T07:46:45;15.60;99.90
6377;DHT22;3221;48.858;10.128;2023-05-07T07:49:12;15.70;99.90
6377;DHT22;3221;48.858;10.128;2023-05-07T07:51:40;15.70;99.90
6377;DHT22;3221;48.858;10.128;2023-05-07T07:54:08;15.80;99.90
6377;DHT22;3221;48.858;10.128;2023-05-07T07:56:35;15.80;99.90
6377;DHT22;3221;48.858;10.128;2023-05-07T07:59:03;15.80;99.90
6377;DHT22;3221;48.858;10.128;2023-05-07T08:01:32;15.90;99.90
6377;DHT22;3221;48.858;10.128;2023-05-07T08:04:00;16.00;99.90
6377;DHT22;3221;48.858;10.128;2023-05-07T08:06:29;16.10;99.90
6377;DHT22;3221;48.858;10.128;2023-05-07T08:08:56;16.20;99.90
6377;DHT22;3221;48.858;10.128;2023-05-07T08:11:23;16.30;99.90
6377;DHT22;3221;48.858;10.128;2023-05-07T08:13:51;16.30;99.90
6377;DHT22;3221;48.858;10.128;2023-05-07T08:16:18;16.40;99.90
6377;DHT22;3221;48.858;10.128;2023-05-07T08:18:47;16.50;99.90
6377;DHT22;3221;48.858;10.128;2023-05-07T08:21:13;16.50;99.90
6377;DHT22;3221;48.858;10.128;2023-05-07T08:23:41;16.50;99.90
6377;DHT22;3221;48.858;10.128;2023-05-07T08:26:08;16.60;99.90
6377;DHT22;3221;48.858;10.128;2023-05-07T08:28:36;16.60;99.90
6377;DHT22;3221;48.858;10.128;2023-05-07T08:31:03;16.70;99.90
6377;DHT22;3221;48.858;10.128;2023-05-07T08:33:34;16.80;99.90
6377;DHT22;3221;48.858;10.128;2023-05-07T08:36:01;16.80;99.90
6377;DHT22;3221;48.858;10.128;2023-05-07T08:38:28;16.90;99.90
6377;DHT22;3221;48.858;10.128;2023-05-07T08:40:56;17.00;99.90
6377;DHT22;3221;48.858;10.128;2023-05-07T08:43:26;17.00;99.90
6377;DHT22;3221;48.858;10.128;2023-05-07T08:45:54;17.10;99.90
6377;DHT22;3221;48.858;10.128;2023-05-07T08:48:27;17.10;99.90
6377;DHT22;3221;48.858;10.128;2023-05-07T08:51:04;17.10;99.90
6377;DHT22;3221;48.858;10.128;2023-05-07T08:53:33;17.10;99.90
6377;DHT22;3221;48.858;10.128;2023-05-07T08:56:00;17.20;99.90
6377;DHT22;3221;48.858;10.128;2023-05-07T08:58:29;17.30;99.90
6377;DHT22;3221;48.858;10.128;2023-05-07T09:00:56;17.40;99.90
6377;DHT22;3221;48.858;10.128;2023-05-07T09:03:24;17.30;99.90
6377;DHT22;3221;48.858;10.128;2023-05-07T09:05:54;17.40;99.90
6377;DHT22;3221;48.858;10.128;2023-05-07T09:08:25;17.40;99.90
6377;DHT22;3221;48.858;10.128;2023-05-07T09:10:54;17.50;99.90
6377;DHT22;3221;48.858;10.128;2023-05-07T09:13:22;17.50;99.90
6377;DHT22;3221;48.858;10.128;2023-05-07T09:15:49;17.60;99.90
6377;DHT22;3221;48.858;10.128;2023-05-07T09:18:17;17.70;99.90
6377;DHT22;3221;48.858;10.128;2023-05-07T09:20:46;17.70;99.90
6377;DHT22;3221;48.858;10.128;2023-05-07T09:23:14;17.70;99.90
6377;DHT22;3221;48.858;10.128;2023-05-07T09:25:43;17.70;99.90
6377;DHT22;3221;48.858;10.128;2023-05-07T09:28:17;17.80;99.90
6377;DHT22;3221;48.858;10.128;2023-05-07T09:30:44;17.80;99.90
6377;DHT22;3221;48.858;10.128;2023-05-07T09:33:13;17.90;99.90
6377;DHT22;3221;48.858;10.128;2023-05-07T09:35:45;17.90;99.90
6377;DHT22;3221;48.858;10.128;2023-05-07T09:38:17;17.90;99.90
6377;DHT22;3221;48.858;10.128;2023-05-07T09:40:48;17.80;99.90
6377;DHT22;3221;48.858;10.128;2023-05-07T09:43:32;17.90;99.90
6377;DHT22;3221;48.858;10.128;2023-05-07T09:46:10;17.90;99.90
6377;DHT22;3221;48.858;10.128;2023-05-07T09:48:41;17.90;99.90
6377;DHT22;3221;48.858;10.128;2023-05-07T09:51:17;18.00;99.90
6377;DHT22;3221;48.858;10.128;2023-05-07T09:53:45;18.00;99.90
6377;DHT22;3221;48.858;10.128;2023-05-07T09:56:14;18.00;99.90
6377;DHT22;3221;48.858;10.128;2023-05-07T09:58:43;18.10;99.90
6377;DHT22;3221;48.858;10.128;2023-05-07T10:01:12;18.10;99.90
6377;DHT22;3221;48.858;10.128;2023-05-07T10:03:41;18.20;99.90
6377;DHT22;3221;48.858;10.128;2023-05-07T10:06:10;18.20;99.90
6377;DHT22;3221;48.858;10.128;2023-05-07T10:08:39;18.20;99.90
6377;DHT22;3221;48.858;10.128;2023-05-07T10:11:07;18.30;99.90
6377;DHT22;3221;48.858;10.128;2023-05-07T10:13:35;18.20;99.90
6377;DHT22;3221;48.858;10.128;2023-05-07T10:16:06;18.30;99.90
6377;DHT22;3221;48.858;10.128;2023-05-07T10:18:41;18.30;99.90
6377;DHT22;3221;48.858;10.128;2023-05-07T10:21:17;18.20;99.90
6377;DHT22;3221;48.858;10.128;2023-05-07T10:23:58;18.30;99.90
6377;DHT22;3221;48.858;10.128;2023-05-07T10:26:29;18.30;99.90
6377;DHT22;3221;48.858;10.128;2023-05-07T10:29:02;18.40;99.90
6377;DHT22;3221;48.858;10.128;2023-05-07T10:31:50;18.40;99.90
6377;DHT22;3221;48.858;10.128;2023-05-07T10:34:25;18.40;99.90
6377;DHT22;3221;48.858;10.128;2023-05-07T10:36:54;18.50;99.90
6377;DHT22;3221;48.858;10.128;2023-05-07T10:39:23;18.50;99.90
6377;DHT22;3221;48.858;10.128;2023-05-07T10:41:51;18.50;99.90
6377;DHT22;3221;48.858;10.128;2023-05-07T10:44:28;18.60;99.90
6377;DHT22;3221;48.858;10.128;2023-05-07T10:47:10;18.60;99.90
6377;DHT22;3221;48.858;10.128;2023-05-07T10:52:21;18.50;99.90
6377;DHT22;3221;48.858;10.128;2023-05-07T10:57:53;18.60;99.90
6377;DHT22;3221;48.858;10.128;2023-05-07T11:03:06;18.70;99.90
6377;DHT22;3221;48.858;10.128;2023-05-07T11:05:42;18.80;99.90
6377;DHT22;3221;48.858;10.128;2023-05-07T11:08:23;18.80;99.90
6377;DHT22;3221;48.858;10.128;2023-05-07T11:11:04;19.00;99.90
6377;DHT22;3221;48.858;10.128;2023-05-07T11:13:47;19.00;99.90
6377;DHT22;3221;48.858;10.128;2023-05-07T11:16:43;19.00;99.90
6377;DHT22;3221;48.858;10.128;2023-05-07T11:19:48;19.00;99.90
6377;DHT22;3221;48.858;10.128;2023-05-07T11:25:17;19.10;99.90
6377;DHT22;3221;48.858;10.128;2023-05-07T11:27:55;19.10;99.90
6377;DHT22;3221;48.858;10.128;2023-05-07T11:30:22;19.20;99.90
6377;DHT22;3221;48.858;10.128;2023-05-07T11:32:49;19.20;99.90
6377;DHT22;3221;48.858;10.128;2023-05-07T11:35:17;19.20;99.90
6377;DHT22;3221;48.858;10.128;2023-05-07T11:37:47;19.20;99.90
6377;DHT22;3221;48.858;10.128;2023-05-07T11:40:15;19.10;99.90
6377;DHT22;3221;48.858;10.128;2023-05-07T11:42:42;19.00;99.90
6377;DHT22;3221;48.858;10.128;2023-05-07T11:45:10;19.00;99.90
6377;DHT22;3221;48.858;10.128;2023-05-07T11:47:38;19.00;99.90
6377;DHT22;3221;48.858;10.128;2023-05-07T11:50:08;19.00;99.90
6377;DHT22;3221;48.858;10.128;2023-05-07T11:52:37;18.90;99.90
6377;DHT22;3221;48.858;10.128;2023-05-07T11:55:06;18.90;99.90
6377;DHT22;3221;48.858;10.128;2023-05-07T11:57:34;19.00;99.90
6377;DHT22;3221;48.858;10.128;2023-05-07T12:00:03;19.00;99.90
6377;DHT22;3221;48.858;10.128;2023-05-07T12:02:40;18.90;99.90
6377;DHT22;3221;48.858;10.128;2023-05-07T12:05:08;19.10;99.90
6377;DHT22;3221;48.858;10.128;2023-05-07T12:07:36;19.20;99.90
6377;DHT22;3221;48.858;10.128;2023-05-07T12:10:07;19.30;99.90
6377;DHT22;3221;48.858;10.128;2023-05-07T12:12:41;19.30;99.90
6377;DHT22;3221;48.858;10.128;2023-05-07T12:15:11;19.30;99.90
6377;DHT22;3221;48.858;10.128;2023-05-07T12:17:38;19.30;99.90
6377;DHT22;3221;48.858;10.128;2023-05-07T12:20:06;19.40;99.90
6377;DHT22;3221;48.858;10.128;2023-05-07T12:22:34;19.40;99.90
6377;DHT22;3221;48.858;10.128;2023-05-07T12:25:01;19.40;99.90
6377;DHT22;3221;48.858;10.128;2023-05-07T12:27:29;19.30;99.90
6377;DHT22;3221;48.858;10.128;2023-05-07T12:29:57;19.40;99.90
6377;DHT22;3221;48.858;10.128;2023-05-07T12:32:24;19.50;99.90
6377;DHT22;3221;48.858;10.128;2023-05-07T12:34:51;19.50;99.90
6377;DHT22;3221;48.858;10.128;2023-05-07T12:37:24;19.50;99.90
6377;DHT22;3221;48.858;10.128;2023-05-07T12:40:13;19.40;99.90
6377;DHT22;3221;48.858;10.128;2023-05-07T12:42:40;19.50;99.90
6377;DHT22;3221;48.858;10.128;2023-05-07T12:45:17;19.50;99.90
6377;DHT22;3221;48.858;10.128;2023-05-07T12:47:46;19.50;99.90
6377;DHT22;3221;48.858;10.128;2023-05-07T12:50:14;19.40;99.90
6377;DHT22;3221;48.858;10.128;2023-05-07T12:52:47;19.30;99.90
6377;DHT22;3221;48.858;10.128;2023-05-07T12:55:15;19.30;99.90
6377;DHT22;3221;48.858;10.128;2023-05-07T12:57:47;19.30;99.90
6377;DHT22;3221;48.858;10.128;2023-05-07T13:00:15;19.30;99.90
6377;DHT22;3221;48.858;10.128;2023-05-07T13:02:43;19.20;99.90
6377;DHT22;3221;48.858;10.128;2023-05-07T13:05:13;19.20;99.90
6377;DHT22;3221;48.858;10.128;2023-05-07T13:07:40;19.10;99.90
6377;DHT22;3221;48.858;10.128;2023-05-07T13:10:08;19.10;99.90
6377;DHT22;3221;48.858;10.128;2023-05-07T13:12:36;19.10;99.90
6377;DHT22;3221;48.858;10.128;2023-05-07T13:15:03;19.10;99.90
6377;DHT22;3221;48.858;10.128;2023-05-07T13:17:30;19.20;99.90
6377;DHT22;3221;48.858;10.128;2023-05-07T13:19:58;19.20;99.90
6377;DHT22;3221;48.858;10.128;2023-05-07T13:22:25;19.20;99.90
6377;DHT22;3221;48.858;10.128;2023-05-07T13:24:52;19.20;99.90
6377;DHT22;3221;48.858;10.128;2023-05-07T13:27:20;19.20;99.90
6377;DHT22;3221;48.858;10.128;2023-05-07T13:29:47;19.30;99.90
6377;DHT22;3221;48.858;10.128;2023-05-07T13:32:14;19.30;99.90
6377;DHT22;3221;48.858;10.128;2023-05-07T13:34:41;19.30;99.90
6377;DHT22;3221;48.858;10.128;2023-05-07T13:37:08;19.20;99.90
6377;DHT22;3221;48.858;10.128;2023-05-07T13:39:37;19.10;99.90
6377;DHT22;3221;48.858;10.128;2023-05-07T13:42:03;19.20;99.90
6377;DHT22;3221;48.858;10.128;2023-05-07T13:44:30;19.20;99.90
6377;DHT22;3221;48.858;10.128;2023-05-07T13:46:57;19.30;99.90
6377;DHT22;3221;48.858;10.128;2023-05-07T13:49:24;19.40;99.90
6377;DHT22;3221;48.858;10.128;2023-05-07T13:51:51;19.40;99.90
6377;DHT22;3221;48.858;10.128;2023-05-07T13:54:18;19.30;99.90
6377;DHT22;3221;48.858;10.128;2023-05-07T13:56:44;19.30;99.90
6377;DHT22;3221;48.858;10.128;2023-05-07T13:59:11;19.50;99.90
6377;DHT22;3221;48.858;10.128;2023-05-07T14:01:40;19.50;99.90
6377;DHT22;3221;48.858;10.128;2023-05-07T14:04:07;19.50;99.90
6377;DHT22;3221;48.858;10.128;2023-05-07T14:06:34;19.50;99.90
6377;DHT22;3221;48.858;10.128;2023-05-07T14:09:01;19.40;99.90
6377;DHT22;3221;48.858;10.128;2023-05-07T14:11:28;19.40;99.90
6377;DHT22;3221;48.858;10.128;2023-05-07T14:13:55;19.30;99.90
6377;DHT22;3221;48.858;10.128;2023-05-07T14:16:23;19.40;99.90
6377;DHT22;3221;48.858;10.128;2023-05-07T14:18:50;19.50;99.90
6377;DHT22;3221;48.858;10.128;2023-05-07T14:21:17;19.50;99.90
6377;DHT22;3221;48.858;10.128;2023-05-07T14:23:44;19.50;99.90
6377;DHT22;3221;48.858;10.128;2023-05-07T14:26:10;19.50;99.90
6377;DHT22;3221;48.858;10.128;2023-05-07T14:28:37;19.40;99.90
6377;DHT22;3221;48.858;10.128;2023-05-07T14:31:06;19.40;99.90
6377;DHT22;3221;48.858;10.128;2023-05-07T14:33:33;19.40;99.90
6377;DHT22;3221;48.858;10.128;2023-05-07T14:36:00;19.40;99.90
6377;DHT22;3221;48.858;10.128;2023-05-07T14:38:27;19.40;99.90
6377;DHT22;3221;48.858;10.128;2023-05-07T14:40:53;19.40;99.90
6377;DHT22;3221;48.858;10.128;2023-05-07T14:43:22;19.30;99.90
6377;DHT22;3221;48.858;10.128;2023-05-07T14:45:49;19.30;99.90
6377;DHT22;3221;48.858;10.128;2023-05-07T14:48:16;19.30;99.90
6377;DHT22;3221;48.858;10.128;2023-05-07T14:50:47;19.30;99.90
6377;DHT22;3221;48.858;10.128;2023-05-07T14:53:15;19.30;99.90
6377;DHT22;3221;48.858;10.128;2023-05-07T14:55:42;19.30;99.90
6377;DHT22;3221;48.858;10.128;2023-05-07T14:58:10;19.30;99.90
6377;DHT22;3221;48.858;10.128;2023-05-07T15:00:37;19.30;99.90
6377;DHT22;3221;48.858;10.128;2023-05-07T15:03:06;19.20;99.90
6377;DHT22;3221;48.858;10.128;2023-05-07T15:05:34;19.30;99.90
6377;DHT22;3221;48.858;10.128;2023-05-07T15:08:02;19.20;99.90
6377;DHT22;3221;48.858;10.128;2023-05-07T15:10:29;19.30;99.90
6377;DHT22;3221;48.858;10.128;2023-05-07T15:12:55;19.20;99.90
6377;DHT22;3221;48.858;10.128;2023-05-07T15:15:22;19.10;99.90
6377;DHT22;3221;48.858;10.128;2023-05-07T15:17:51;19.10;99.90
6377;DHT22;3221;48.858;10.128;2023-05-07T15:20:18;19.20;99.90
6377;DHT22;3221;48.858;10.128;2023-05-07T15:22:45;19.00;99.90
6377;DHT22;3221;48.858;10.128;2023-05-07T15:25:12;18.80;99.90
6377;DHT22;3221;48.858;10.128;2023-05-07T15:27:39;18.90;99.90
6377;DHT22;3221;48.858;10.128;2023-05-07T15:30:06;18.80;99.90
6377;DHT22;3221;48.858;10.128;2023-05-07T15:32:33;18.80;99.90
6377;DHT22;3221;48.858;10.128;2023-05-07T15:35:01;18.70;99.90
6377;DHT22;3221;48.858;10.128;2023-05-07T15:37:28;18.80;99.90
6377;DHT22;3221;48.858;10.128;2023-05-07T15:39:56;18.70;99.90
6377;DHT22;3221;48.858;10.128;2023-05-07T15:42:23;18.80;99.90
6377;DHT22;3221;48.858;10.128;2023-05-07T15:44:50;18.70;99.90
6377;DHT22;3221;48.858;10.128;2023-05-07T15:47:17;18.70;99.90
6377;DHT22;3221;48.858;10.128;2023-05-07T15:49:44;18.70;99.90
6377;DHT22;3221;48.858;10.128;2023-05-07T15:52:11;18.60;99.90
6377;DHT22;3221;48.858;10.128;2023-05-07T15:54:40;18.50;99.90
6377;DHT22;3221;48.858;10.128;2023-05-07T15:57:07;18.50;99.90
6377;DHT22;3221;48.858;10.128;2023-05-07T15:59:35;18.40;99.90
6377;DHT22;3221;48.858;10.128;2023-05-07T16:02:02;18.40;99.90
6377;DHT22;3221;48.858;10.128;2023-05-07T16:04:29;18.40;99.90
6377;DHT22;3221;48.858;10.128;2023-05-07T16:06:56;18.60;99.90